Time;durP1;ratioP1;P1;durP2;ratioP2;P2;SDS_P1;SDS_P2;PMS_P1;PMS_P2;Temp;Humidity;BMP_temperature;BMP_pressure;BME280_temperature;BME280_humidity;BME280_pressure;Samples;Min_cycle;Max_cycle;Signal;HPM_P1;HPM_P2
2022/08/11 00:00:05;;;;;;;3.30;1.92;;;23.50;57.60;;;;;;5047651;28;20514;-76
2022/08/11 00:02:40;;;;;;;2.40;2.00;;;23.50;57.60;;;;;;5052962;28;20457;-76
2022/08/11 00:05:14;;;;;;;2.53;2.00;;;23.40;57.70;;;;;;5052979;28;20029;-75
2022/08/11 00:07:42;;;;;;;2.85;2.03;;;23.40;57.70;;;;;;5053810;28;20036;-77
2022/08/11 00:10:15;;;;;;;5.18;2.03;;;23.30;57.90;;;;;;5054342;28;20025;-76
2022/08/11 00:12:43;;;;;;;2.20;2.00;;;23.20;58.00;;;;;;5051682;28;20468;-74
2022/08/11 00:15:09;;;;;;;10.35;2.35;;;23.10;58.40;;;;;;5054476;28;20048;-77
2022/08/11 00:17:36;;;;;;;2.22;1.70;;;23.00;58.50;;;;;;5050207;28;20112;-76
2022/08/11 00:20:10;;;;;;;6.03;2.13;;;23.00;58.80;;;;;;5053212;28;20033;-77
2022/08/11 00:22:42;;;;;;;3.70;1.67;;;22.90;59.00;;;;;;5052946;28;20021;-77
2022/08/11 00:25:18;;;;;;;4.30;2.00;;;22.80;59.10;;;;;;5052446;28;20155;-74
2022/08/11 00:27:45;;;;;;;4.82;1.85;;;22.80;59.20;;;;;;5046256;28;20438;-76
2022/08/11 00:30:15;;;;;;;3.42;2.00;;;22.70;59.60;;;;;;5051518;28;20033;-78
2022/08/11 00:32:43;;;;;;;6.15;2.03;;;22.70;59.40;;;;;;5051383;28;20028;-76
2022/08/11 00:35:16;;;;;;;4.43;2.05;;;22.60;59.60;;;;;;5051835;28;20028;-75
2022/08/11 00:37:53;;;;;;;3.88;1.83;;;22.60;59.80;;;;;;5046919;28;20494;-77
2022/08/11 00:40:51;;;;;;;3.05;2.00;;;22.60;59.80;;;;;;5048609;28;20024;-75
2022/08/11 00:43:23;;;;;;;3.42;2.17;;;22.60;60.00;;;;;;5049401;28;20021;-75
2022/08/11 00:46:05;;;;;;;2.55;1.88;;;22.50;60.00;;;;;;5048047;28;20254;-75
2022/08/11 00:49:05;;;;;;;3.63;1.70;;;22.50;60.10;;;;;;5048514;28;20005;-76
2022/08/11 00:51:49;;;;;;;5.35;2.10;;;22.40;60.40;;;;;;5048853;28;20028;-76
2022/08/11 00:54:45;;;;;;;4.03;1.77;;;22.40;60.50;;;;;;5046681;28;20027;-76
2022/08/11 00:57:43;;;;;;;3.53;2.30;;;22.30;60.80;;;;;;5049039;28;20070;-74
2022/08/11 01:00:30;;;;;;;3.75;1.90;;;22.30;61.20;;;;;;5044264;28;20044;-74
2022/08/11 01:03:16;;;;;;;2.05;1.77;;;22.20;61.50;;;;;;5063518;28;20021;-75
2022/08/11 01:06:07;;;;;;;3.72;1.98;;;22.20;61.50;;;;;;5047773;28;20017;-77
2022/08/11 01:08:38;;;;;;;2.72;1.98;;;22.10;61.80;;;;;;5062678;28;20021;-74
2022/08/11 01:11:40;;;;;;;6.47;2.13;;;22.10;61.90;;;;;;5062838;28;20028;-75
2022/08/11 01:14:21;;;;;;;2.03;1.83;;;22.00;62.50;;;;;;5045694;28;20140;-75
2022/08/11 01:17:04;;;;;;;8.45;2.00;;;21.90;62.50;;;;;;5047052;28;20021;-77
2022/08/11 01:19:32;;;;;;;3.92;1.85;;;21.90;62.70;;;;;;5047074;28;20033;-74
2022/08/11 01:22:13;;;;;;;2.00;1.75;;;21.90;62.80;;;;;;5048168;28;20021;-76
2022/08/11 01:24:56;;;;;;;2.10;1.80;;;21.80;62.90;;;;;;5046324;28;20057;-77
2022/08/11 01:27:39;;;;;;;;;;;21.80;62.90;;;;;;5047124;28;20521;-76
2022/08/11 01:30:36;;;;;;;1.83;1.65;;;21.80;62.90;;;;;;5047189;28;19932;-74
2022/08/11 01:33:23;;;;;;;8.77;2.47;;;21.70;63.20;;;;;;5046987;28;20032;-77
2022/08/11 01:36:10;;;;;;;5.88;2.00;;;21.70;63.10;;;;;;5046605;28;20017;-76
2022/08/11 01:38:57;;;;;;;4.18;2.15;;;21.70;63.10;;;;;;5044114;28;20067;-74
2022/08/11 01:44:51;;;;;;;2.25;1.83;;;21.60;63.70;;;;;;5047852;28;20035;-78
2022/08/11 01:47:53;;;;;;;4.53;2.15;;;21.60;63.80;;;;;;5045135;28;20020;-76
2022/08/11 01:50:41;;;;;;;6.57;2.58;;;21.60;64.10;;;;;;5044396;28;20021;-76
2022/08/11 01:53:29;;;;;;;3.60;2.40;;;21.50;64.10;;;;;;5046258;28;20025;-75
2022/08/11 01:56:01;;;;;;;4.68;2.17;;;21.50;64.30;;;;;;5063628;28;20108;-75
2022/08/11 01:58:43;;;;;;;7.85;3.45;;;21.50;64.50;;;;;;5047732;28;20025;-75
2022/08/11 02:01:31;;;;;;;6.53;2.50;;;21.60;64.60;;;;;;5045850;28;20036;-75
2022/08/11 02:04:30;;;;;;;9.30;2.38;;;21.50;64.50;;;;;;5047763;28;20025;-77
2022/08/11 02:07:18;;;;;;;5.80;2.20;;;21.50;64.60;;;;;;5046843;28;20029;-77
2022/08/11 02:09:48;;;;;;;5.53;2.33;;;21.50;64.90;;;;;;5048739;28;20017;-75
2022/08/11 02:12:25;;;;;;;6.03;2.25;;;21.50;64.90;;;;;;5062485;28;20151;-77
2022/08/11 02:15:01;;;;;;;7.97;2.00;;;21.40;64.80;;;;;;5049532;28;20032;-76
2022/08/11 02:18:04;;;;;;;5.35;2.13;;;21.40;65.10;;;;;;5050434;28;20025;-75
2022/08/11 02:23:49;;;;;;;5.85;2.20;;;21.20;65.90;;;;;;5047477;28;20417;-76
2022/08/11 02:26:22;;;;;;;5.15;2.55;;;21.20;66.20;;;;;;5047546;28;20029;-77
2022/08/11 02:28:53;;;;;;;3.53;2.15;;;21.10;66.30;;;;;;5052373;28;20120;-77
2022/08/11 02:34:55;;;;;;;5.95;2.00;;;21.20;66.40;;;;;;5049801;28;20040;-78
2022/08/11 02:37:32;;;;;;;6.20;2.13;;;21.10;66.90;;;;;;5051793;28;20024;-75
2022/08/11 02:39:57;;;;;;;2.72;1.70;;;21.00;66.60;;;;;;5047036;28;20064;-78
2022/08/11 02:43:01;;;;;;;5.70;2.00;;;21.00;66.80;;;;;;5052029;28;20385;-77
2022/08/11 02:45:39;;;;;;;3.95;2.50;;;21.00;67.20;;;;;;5021580;28;20037;-76
2022/08/11 02:51:04;;;;;;;5.15;2.28;;;21.00;67.40;;;;;;5049603;28;20059;-75
2022/08/11 02:53:36;;;;;;;2.42;2.22;;;20.90;68.10;;;;;;5050621;28;20442;-77
2022/08/11 02:56:21;;;;;;;9.65;3.97;;;20.80;68.00;;;;;;5063729;28;20029;-78
2022/08/11 03:02:18;;;;;;;5.05;2.30;;;20.80;68.50;;;;;;5026374;28;20083;-76
2022/08/11 03:05:15;;;;;;;4.95;2.08;;;20.70;68.30;;;;;;5048773;28;20108;-78
2022/08/11 03:07:53;;;;;;;2.63;2.22;;;20.60;69.10;;;;;;5045045;28;20029;-78
2022/08/11 03:10:27;;;;;;;6.55;2.90;;;20.60;69.30;;;;;;5050705;28;20465;-78
2022/08/11 03:16:45;;;;;;;11.32;2.83;;;20.60;70.40;;;;;;5049995;28;20035;-77
2022/08/11 03:19:44;;;;;;;3.83;2.95;;;20.60;70.00;;;;;;5046174;28;20102;-75
2022/08/11 03:22:27;;;;;;;3.50;2.28;;;20.50;70.50;;;;;;5050532;28;20130;-76
2022/08/11 03:25:04;;;;;;;5.40;2.70;;;20.50;70.70;;;;;;5048533;28;20032;-76
2022/08/11 03:27:56;;;;;;;5.18;2.80;;;20.50;70.90;;;;;;5065517;28;20338;-78
2022/08/11 03:30:53;;;;;;;3.83;3.08;;;20.50;71.10;;;;;;5039333;28;20107;-77
2022/08/11 03:36:25;;;;;;;3.78;2.75;;;20.50;71.30;;;;;;5052102;28;20461;-77
2022/08/11 03:39:03;;;;;;;3.90;2.60;;;20.50;70.90;;;;;;5050682;28;20052;-78
2022/08/11 03:41:43;;;;;;;9.63;2.97;;;20.50;71.30;;;;;;5048463;28;20039;-75
2022/08/11 03:44:50;;;;;;;3.58;2.80;;;20.50;71.70;;;;;;5045786;28;20025;-77
2022/08/11 03:47:30;;;;;;;3.22;2.80;;;20.50;71.70;;;;;;5049966;28;20064;-76
2022/08/11 03:50:42;;;;;;;6.50;2.80;;;20.50;72.40;;;;;;5040677;28;20115;-77
2022/08/11 03:53:28;;;;;;;3.78;2.67;;;20.40;72.80;;;;;;5009504;28;20037;-77
2022/08/11 03:56:21;;;;;;;5.38;2.58;;;20.40;72.70;;;;;;5051513;28;20029;-76
2022/08/11 03:58:47;;;;;;;3.38;2.95;;;20.40;73.20;;;;;;5048512;28;20052;-78
2022/08/11 04:01:34;;;;;;;3.67;3.08;;;20.30;73.50;;;;;;5051197;28;20488;-79
2022/08/11 04:04:53;;;;;;;5.88;2.78;;;20.30;74.40;;;;;;5048557;28;20449;-77
2022/08/11 04:07:37;;;;;;;8.35;2.75;;;20.20;74.70;;;;;;5027561;28;20093;-74
2022/08/11 04:10:18;;;;;;;4.90;2.78;;;20.20;75.30;;;;;;5051269;28;20029;-76
2022/08/11 04:13:25;;;;;;;4.60;2.63;;;20.10;75.80;;;;;;5048885;28;20458;-75
2022/08/11 04:16:22;;;;;;;5.93;2.67;;;20.00;76.30;;;;;;5025789;28;20032;-78
2022/08/11 04:19:25;;;;;;;8.95;2.90;;;20.00;76.80;;;;;;5024201;28;20025;-78
2022/08/11 04:22:09;;;;;;;7.07;2.65;;;20.00;77.40;;;;;;5012049;28;20071;-78
2022/08/11 04:25:16;;;;;;;8.30;2.80;;;20.00;78.00;;;;;;5025595;28;20091;-75
2022/08/11 04:28:09;;;;;;;8.00;2.97;;;20.00;78.40;;;;;;5011191;28;20042;-78
2022/08/11 04:30:57;;;;;;;5.90;3.38;;;19.90;78.80;;;;;;5023665;28;20037;-78
2022/08/11 04:33:36;;;;;;;9.50;3.15;;;19.90;79.00;;;;;;5026022;28;20033;-77
2022/08/11 04:39:51;;;;;;;8.65;3.05;;;19.80;80.50;;;;;;5026482;28;20111;-78
2022/08/11 04:45:47;;;;;;;10.15;2.92;;;20.00;79.90;;;;;;5024860;28;20045;-77
2022/08/11 05:07:22;;;;;;;11.98;2.78;;;20.20;79.10;;;;;;5053288;28;20083;-76
2022/08/11 05:10:43;;;;;;;16.77;3.25;;;20.20;79.20;;;;;;5052541;28;20082;-77
2022/08/11 05:36:22;;;;;;;4.80;2.75;;;20.70;77.10;;;;;;5051157;28;20181;-75
2022/08/11 05:58:44;;;;;;;11.30;2.30;;;21.10;76.70;;;;;;5048072;28;20128;-77
2022/08/11 06:01:20;;;;;;;3.40;2.38;;;21.10;76.50;;;;;;5047639;28;20036;-76
2022/08/11 06:06:39;;;;;;;8.50;2.53;;;21.10;77.10;;;;;;5049706;28;20558;-78
2022/08/11 06:09:06;;;;;;;5.05;2.70;;;21.20;77.30;;;;;;5047525;28;20091;-75
2022/08/11 06:11:40;;;;;;;6.95;2.50;;;21.20;77.20;;;;;;5048767;28;20100;-76
2022/08/11 06:14:09;;;;;;;9.13;2.67;;;21.30;76.90;;;;;;5048528;28;20048;-76
2022/08/11 06:16:36;;;;;;;4.82;2.60;;;21.30;76.60;;;;;;5049486;28;20472;-75
2022/08/11 06:19:03;;;;;;;4.25;2.42;;;21.40;76.40;;;;;;5052169;28;20490;-77
2022/08/11 06:21:33;;;;;;;10.30;2.28;;;21.50;76.20;;;;;;5048956;28;20021;-76
2022/08/11 06:24:00;;;;;;;5.90;2.70;;;21.60;75.70;;;;;;5049989;28;20529;-77
2022/08/11 06:26:28;;;;;;;6.10;2.78;;;21.70;74.50;;;;;;5050348;28;19913;-76
2022/08/11 06:28:58;;;;;;;7.25;2.40;;;21.80;73.10;;;;;;5050183;28;20017;-76
2022/08/11 06:31:25;;;;;;;4.05;2.40;;;21.80;73.30;;;;;;5049756;28;20021;-77
2022/08/11 06:34:22;;;;;;;4.63;2.05;;;21.90;72.30;;;;;;5050838;28;20028;-80
2022/08/11 06:37:00;;;;;;;2.63;2.33;;;22.00;71.50;;;;;;5050882;28;20040;-76
2022/08/11 06:40:03;;;;;;;8.60;2.67;;;22.10;70.20;;;;;;5049470;28;20021;-77
2022/08/11 06:42:54;;;;;;;8.55;2.58;;;22.10;69.50;;;;;;4987483;28;20443;-77
2022/08/11 06:45:54;;;;;;;3.30;2.35;;;22.20;69.60;;;;;;5049291;28;20365;-77
2022/08/11 06:48:25;;;;;;;4.93;2.30;;;22.30;69.50;;;;;;5045205;28;20029;-79
2022/08/11 06:51:11;;;;;;;5.45;2.40;;;22.40;69.10;;;;;;5040598;28;20151;-77
2022/08/11 06:54:02;;;;;;;4.32;2.22;;;22.50;68.10;;;;;;5050403;28;20025;-78
2022/08/11 07:02:19;;;;;;;7.63;2.78;;;22.80;67.10;;;;;;5046836;28;20040;-77
2022/08/11 07:05:36;;;;;;;6.20;2.30;;;22.90;67.00;;;;;;5049067;28;20017;-71
2022/08/11 07:17:10;;;;;;;8.73;2.28;;;23.50;65.60;;;;;;5048641;28;20032;-71
2022/08/11 07:30:47;;;;;;;5.25;2.45;;;24.20;62.00;;;;;;5050756;28;20044;-68
2022/08/11 07:33:21;;;;;;;3.80;2.63;;;24.30;61.90;;;;;;5049791;28;20130;-71
2022/08/11 07:35:55;;;;;;;5.05;2.45;;;24.40;61.30;;;;;;5048663;28;20029;-71
2022/08/11 07:38:45;;;;;;;6.03;2.88;;;24.50;60.80;;;;;;5052201;28;20032;-72
2022/08/11 07:41:18;;;;;;;5.68;2.42;;;24.70;60.30;;;;;;5046680;28;20395;-73
2022/08/11 07:43:49;;;;;;;3.47;2.33;;;24.80;59.70;;;;;;5050092;28;20104;-72
2022/08/11 07:54:41;;;;;;;7.32;2.63;;;25.30;57.50;;;;;;5049466;28;20150;-72
2022/08/11 08:19:17;;;;;;;6.20;2.97;;;26.40;55.20;;;;;;5049354;28;20064;-70
2022/08/11 08:21:44;;;;;;;7.00;2.80;;;26.70;55.50;;;;;;5048140;28;20071;-72
2022/08/11 08:24:11;;;;;;;5.60;2.33;;;26.90;54.70;;;;;;5053124;28;20048;-72
2022/08/11 08:32:15;;;;;;;6.25;2.83;;;27.50;53.50;;;;;;5054445;28;20040;-72
2022/08/11 08:34:41;;;;;;;3.30;2.15;;;27.70;53.10;;;;;;5049908;28;20033;-72
2022/08/11 08:37:07;;;;;;;299.67;145.80;;;28.00;52.20;;;;;;5052784;28;20119;-73
2022/08/11 08:39:36;;;;;;;4.30;3.20;;;28.40;51.60;;;;;;5053443;28;20429;-71
2022/08/11 08:42:10;;;;;;;7.10;4.18;;;33.00;44.70;;;;;;5050482;28;20041;-72
2022/08/11 08:44:41;;;;;;;4.88;4.13;;;38.40;37.80;;;;;;5042586;28;20116;-72
2022/08/11 08:47:12;;;;;;;12.73;5.30;;;41.80;34.40;;;;;;5069021;28;20053;-71
2022/08/11 08:49:48;;;;;;;12.07;5.57;;;44.10;29.10;;;;;;5053406;28;20021;-72
2022/08/11 08:52:17;;;;;;;7.60;7.05;;;45.60;27.60;;;;;;5050145;28;20017;-73
2022/08/11 08:54:44;;;;;;;8.05;7.22;;;46.30;26.30;;;;;;5066279;28;20042;-73
2022/08/11 08:57:12;;;;;;;9.52;8.68;;;46.80;26.50;;;;;;5050178;28;20047;-73
2022/08/11 08:59:46;;;;;;;10.70;9.85;;;47.50;25.40;;;;;;5052517;28;20442;-75
2022/08/11 09:02:12;;;;;;;10.82;10.15;;;47.90;24.20;;;;;;5052042;28;20735;-74
2022/08/11 09:04:41;;;;;;;12.55;11.45;;;47.20;24.90;;;;;;5049696;28;20033;-73
2022/08/11 09:07:12;;;;;;;13.68;12.30;;;47.60;24.10;;;;;;5053146;28;20738;-73
2022/08/11 09:09:47;;;;;;;12.80;12.00;;;48.40;24.00;;;;;;5064090;28;20029;-72
2022/08/11 09:12:13;;;;;;;24.55;20.88;;;48.60;23.40;;;;;;5050214;28;20025;-73
2022/08/11 09:14:59;;;;;;;15.25;14.05;;;48.90;23.10;;;;;;5050810;28;20422;-73
2022/08/11 09:17:27;;;;;;;17.48;16.17;;;49.50;23.20;;;;;;5052396;28;20736;-73
2022/08/11 09:20:06;;;;;;;20.95;19.40;;;50.20;22.80;;;;;;5053067;28;20044;-69
2022/08/11 09:28:10;;;;;;;22.00;20.63;;;49.70;22.20;;;;;;5046540;28;20413;-72
2022/08/11 09:30:39;;;;;;;20.70;19.33;;;49.70;21.70;;;;;;5045718;28;20059;-72
2022/08/11 09:33:05;;;;;;;23.85;22.42;;;50.30;21.90;;;;;;5040681;28;20029;-72
2022/08/11 09:35:37;;;;;;;26.40;24.80;;;50.10;21.40;;;;;;5049399;28;20040;-72
2022/08/11 09:40:53;;;;;;;28.75;27.02;;;51.20;21.10;;;;;;5049980;28;20086;-72
2022/08/11 09:46:05;;;;;;;23.27;21.73;;;50.90;20.50;;;;;;5050960;28;20102;-73
2022/08/11 09:48:38;;;;;;;25.42;24.02;;;50.70;20.90;;;;;;5043979;28;20033;-72
2022/08/11 09:51:06;;;;;;;26.05;24.45;;;50.80;20.60;;;;;;5050953;28;20116;-72
2022/08/11 09:53:35;;;;;;;23.10;21.58;;;50.40;20.40;;;;;;5048920;28;20028;-73
2022/08/11 09:58:12;;;;;;;25.80;23.73;;;50.40;20.60;;;;;;5048255;28;20068;-73
2022/08/11 09:58:50;;;;;;;23.00;21.30;;;50.50;20.70;;;;;;5048659;28;20587;-75
2022/08/11 10:01:27;;;;;;;65.72;52.03;;;50.60;20.80;;;;;;5048503;28;20037;-74
2022/08/11 10:04:16;;;;;;;25.08;23.50;;;51.00;20.20;;;;;;5048552;28;20702;-72
2022/08/11 10:07:09;;;;;;;23.90;22.05;;;50.50;19.90;;;;;;5066497;28;20033;-74
2022/08/11 10:09:37;;;;;;;20.38;19.15;;;50.10;19.70;;;;;;5051512;28;20514;-73
2022/08/11 10:12:20;;;;;;;17.23;16.33;;;49.40;20.20;;;;;;5048361;28;20036;-74
2022/08/11 10:17:38;;;;;;;15.55;14.18;;;48.50;20.90;;;;;;5050165;28;20682;-72
2022/08/11 10:20:07;;;;;;;15.30;14.27;;;48.70;21.20;;;;;;5048846;28;20052;-74
2022/08/11 10:28:12;;;;;;;13.95;13.02;;;48.20;21.20;;;;;;5051440;28;20075;-74
2022/08/11 10:36:21;;;;;;;12.82;11.73;;;47.90;21.20;;;;;;5039553;28;20029;-73
2022/08/11 10:38:51;;;;;;;12.45;11.23;;;47.90;21.10;;;;;;5050109;28;20029;-74
2022/08/11 10:44:06;;;;;;;10.85;10.05;;;47.60;20.90;;;;;;5047925;28;20401;-72
2022/08/11 10:49:17;;;;;;;9.93;9.05;;;46.60;20.30;;;;;;5050029;28;20048;-74
2022/08/11 11:00:08;;;;;;;9.57;8.98;;;47.90;21.00;;;;;;5050286;28;20547;-73
2022/08/11 11:02:34;;;;;;;9.38;8.63;;;46.80;21.00;;;;;;5048985;28;20083;-71
2022/08/11 11:05:15;;;;;;;9.20;8.60;;;46.50;21.40;;;;;;5049125;28;20449;-72
2022/08/11 11:07:55;;;;;;;8.23;7.77;;;46.00;22.10;;;;;;5048226;28;20450;-73
2022/08/11 11:10:23;;;;;;;11.30;8.07;;;45.70;22.30;;;;;;5047859;28;20278;-73
2022/08/11 11:18:38;;;;;;;7.50;6.95;;;45.40;22.20;;;;;;5047703;28;20094;-72
2022/08/11 11:21:06;;;;;;;6.13;5.88;;;45.20;22.80;;;;;;5046205;28;20029;-68
2022/08/11 11:23:51;;;;;;;6.93;6.43;;;44.80;22.10;;;;;;5049396;28;20103;-73
2022/08/11 11:26:38;;;;;;;6.07;5.45;;;44.00;22.20;;;;;;5047449;28;20044;-73
2022/08/11 11:29:19;;;;;;;6.25;5.03;;;43.50;22.50;;;;;;5048470;28;20029;-73
2022/08/11 11:32:03;;;;;;;5.10;4.90;;;43.10;22.80;;;;;;5044881;28;20090;-74
2022/08/11 11:35:10;;;;;;;7.97;5.38;;;43.20;23.00;;;;;;5045493;28;20029;-73
2022/08/11 11:37:37;;;;;;;5.90;5.13;;;43.20;23.10;;;;;;5048565;28;20139;-73
2022/08/11 11:40:12;;;;;;;5.55;5.15;;;43.60;23.30;;;;;;5046965;28;20021;-71
2022/08/11 11:42:40;;;;;;;5.68;5.05;;;43.60;22.60;;;;;;5047974;28;20029;-73
2022/08/11 11:45:08;;;;;;;5.57;5.15;;;43.30;23.40;;;;;;5047563;28;20026;-73
2022/08/11 11:47:36;;;;;;;5.82;5.30;;;43.20;23.60;;;;;;5046341;28;20641;-72
2022/08/11 11:50:03;;;;;;;8.57;5.05;;;43.30;23.60;;;;;;5047513;28;20035;-72
2022/08/11 11:52:29;;;;;;;6.90;4.82;;;43.10;23.80;;;;;;5046642;28;20414;-73
2022/08/11 11:54:59;;;;;;;4.53;4.18;;;43.00;23.80;;;;;;5049349;28;20041;-73
2022/08/11 12:02:59;;;;;;;11.75;4.80;;;42.90;23.80;;;;;;5052379;28;20024;-74
2022/08/11 12:05:26;;;;;;;5.03;4.50;;;42.80;23.90;;;;;;5052759;28;20423;-72
2022/08/11 12:13:50;;;;;;;5.75;4.82;;;42.50;24.00;;;;;;5051975;28;20028;-74
2022/08/11 12:16:18;;;;;;;4.85;4.55;;;42.30;25.00;;;;;;5051045;28;20404;-71
2022/08/11 12:18:46;;;;;;;4.88;4.55;;;42.30;24.40;;;;;;5053477;28;20132;-74
2022/08/11 12:21:14;;;;;;;5.32;4.13;;;41.90;24.80;;;;;;5051609;28;20044;-74
2022/08/11 12:29:26;;;;;;;4.57;4.18;;;41.30;25.30;;;;;;5053177;28;20032;-75
2022/08/11 12:31:57;;;;;;;5.78;4.07;;;41.20;25.20;;;;;;5051864;28;20087;-73
2022/08/11 12:34:26;;;;;;;5.87;4.13;;;40.60;25.20;;;;;;5050385;28;20036;-71
2022/08/11 12:36:57;;;;;;;5.97;3.97;;;40.10;25.90;;;;;;5052768;28;20017;-73
2022/08/11 12:53:27;;;;;;;4.03;3.72;;;39.80;26.60;;;;;;5053612;28;20105;-74
2022/08/11 12:58:44;;;;;;;6.28;4.40;;;40.50;25.80;;;;;;5051349;28;20086;-73
2022/08/11 13:06:43;;;;;;;4.22;3.92;;;40.70;25.30;;;;;;5051387;28;20031;-73
2022/08/11 13:09:11;;;;;;;3.92;3.72;;;41.20;25.20;;;;;;5051346;28;20032;-74
2022/08/11 13:14:26;;;;;;;4.60;4.10;;;41.20;24.80;;;;;;5047576;28;20075;-70
2022/08/11 13:19:40;;;;;;;6.20;4.25;;;41.40;24.50;;;;;;5048567;28;20035;-74
2022/08/11 13:22:09;;;;;;;7.22;4.18;;;41.70;24.70;;;;;;5050849;28;20035;-72
2022/08/11 13:24:38;;;;;;;4.35;4.00;;;41.80;24.50;;;;;;5050461;28;20120;-74
2022/08/11 13:27:04;;;;;;;4.90;4.50;;;41.50;24.60;;;;;;5050309;28;20430;-73
2022/08/11 13:29:30;;;;;;;5.80;4.20;;;41.60;24.70;;;;;;5053003;28;20025;-71
2022/08/11 13:31:58;;;;;;;8.00;4.63;;;41.70;24.40;;;;;;5049755;28;20035;-74
2022/08/11 13:34:25;;;;;;;4.45;4.10;;;41.90;24.40;;;;;;5050151;28;20028;-73
2022/08/11 13:36:55;;;;;;;3.95;3.65;;;41.90;24.20;;;;;;5048792;28;20096;-72
2022/08/11 13:39:30;;;;;;;3.90;3.65;;;41.60;24.00;;;;;;5050191;28;20016;-74
2022/08/11 13:42:01;;;;;;;4.55;4.10;;;41.50;24.20;;;;;;5051927;28;20032;-74
2022/08/11 13:44:31;;;;;;;5.00;4.60;;;41.60;24.80;;;;;;5051005;28;20024;-72
2022/08/11 13:47:02;;;;;;;7.68;4.40;;;41.70;24.80;;;;;;5051177;28;20350;-74
2022/08/11 13:49:30;;;;;;;3.97;3.67;;;41.70;24.70;;;;;;5060617;28;20025;-71
2022/08/11 13:51:59;;;;;;;9.40;4.15;;;41.80;24.90;;;;;;5051958;28;20135;-73
2022/08/11 13:54:28;;;;;;;6.18;4.50;;;41.80;24.60;;;;;;5051146;28;20101;-70
2022/08/11 13:56:56;;;;;;;4.72;4.38;;;41.50;24.40;;;;;;5050777;28;20132;-74
2022/08/11 13:59:23;;;;;;;5.40;4.20;;;41.60;24.70;;;;;;5052088;28;20514;-72
2022/08/11 14:01:55;;;;;;;4.70;4.35;;;41.30;24.90;;;;;;5052734;28;20017;-69
2022/08/11 14:04:51;;;;;;;8.55;3.95;;;41.30;25.20;;;;;;5047950;28;20032;-74
2022/08/11 14:07:23;;;;;;;8.27;4.47;;;41.80;25.10;;;;;;5050576;28;20029;-74
2022/08/11 14:09:55;;;;;;;8.90;4.50;;;41.80;25.20;;;;;;5049909;28;20017;-71
2022/08/11 14:15:26;;;;;;;8.57;4.32;;;41.40;25.40;;;;;;5051724;28;20086;-73
2022/08/11 14:18:05;;;;;;;5.15;4.47;;;41.40;25.40;;;;;;5051747;28;20051;-72
2022/08/11 14:23:25;;;;;;;9.15;4.07;;;41.30;25.40;;;;;;5054308;28;20110;-70
2022/08/11 14:28:38;;;;;;;6.57;4.50;;;40.90;25.50;;;;;;5051341;28;20488;-77
2022/08/11 14:31:08;;;;;;;6.40;3.85;;;41.00;25.90;;;;;;5049518;28;20120;-73
2022/08/11 14:33:35;;;;;;;4.18;3.92;;;41.00;25.40;;;;;;5048731;28;20025;-72
2022/08/11 14:36:05;;;;;;;7.80;4.28;;;41.20;25.80;;;;;;5050137;28;20036;-73
2022/08/11 14:38:33;;;;;;;5.00;4.57;;;41.40;25.60;;;;;;5047728;28;20055;-73
2022/08/11 14:49:26;;;;;;;5.00;4.60;;;40.90;25.80;;;;;;5049328;28;20032;-73
2022/08/11 14:51:55;;;;;;;6.30;4.07;;;40.60;25.70;;;;;;5050828;28;20081;-73
2022/08/11 14:57:18;;;;;;;6.95;4.30;;;40.10;26.30;;;;;;5049506;28;20055;-74
2022/08/11 14:59:47;;;;;;;4.82;4.43;;;40.40;25.80;;;;;;5047558;28;20044;-73
2022/08/11 15:05:01;;;;;;;3.92;3.30;;;40.90;25.50;;;;;;5048410;28;20044;-73
2022/08/11 15:07:33;;;;;;;5.72;4.18;;;40.90;25.50;;;;;;5049886;28;20025;-75
2022/08/11 15:09:59;;;;;;;;;;;40.70;25.50;;;;;;5048092;28;20049;-74
2022/08/11 15:12:26;;;;;;;6.47;4.25;;;40.70;25.60;;;;;;5048207;28;20337;-73
2022/08/11 15:17:39;;;;;;;4.13;3.67;;;40.60;25.80;;;;;;5048349;28;20036;-74
2022/08/11 15:25:44;;;;;;;7.97;3.92;;;40.10;25.80;;;;;;5048337;28;20167;-73
2022/08/11 15:45:46;;;;;;;3.92;3.63;;;39.20;26.70;;;;;;5048096;28;20032;-74
2022/08/11 15:48:08;;;;;;;8.55;3.30;;;39.10;25.90;;;;;;5050397;28;20516;-75
2022/08/11 15:50:39;;;;;;;3.63;3.42;;;38.70;26.20;;;;;;5049373;28;20101;-74
2022/08/11 15:53:16;;;;;;;5.90;3.97;;;38.60;26.30;;;;;;5046275;28;20028;-74
2022/08/11 15:55:44;;;;;;;3.90;3.38;;;38.70;26.10;;;;;;5043733;28;20359;-73
2022/08/11 16:06:44;;;;;;;3.83;3.53;;;39.10;25.90;;;;;;5043673;28;20111;-74
2022/08/11 16:09:13;;;;;;;3.88;3.58;;;39.30;26.10;;;;;;5061068;28;20029;-75
2022/08/11 16:11:40;;;;;;;4.32;3.22;;;39.10;26.00;;;;;;5047962;28;20045;-73
2022/08/11 16:16:52;;;;;;;3.97;3.58;;;38.30;26.20;;;;;;5050083;28;20576;-74
2022/08/11 16:19:20;;;;;;;4.72;3.40;;;38.50;26.60;;;;;;5046442;28;20068;-71
2022/08/11 16:21:51;;;;;;;9.65;3.67;;;38.50;26.20;;;;;;5044369;28;20505;-73
2022/08/11 16:24:21;;;;;;;5.07;3.20;;;38.80;26.30;;;;;;5061300;28;20434;-75
2022/08/11 16:26:49;;;;;;;3.28;3.05;;;38.70;26.30;;;;;;5044542;28;20102;-74
2022/08/11 16:29:18;;;;;;;6.63;3.53;;;38.60;26.30;;;;;;5046459;28;20028;-73
2022/08/11 16:32:15;;;;;;;3.85;3.55;;;38.60;26.40;;;;;;5047455;28;20039;-73
2022/08/11 16:40:04;;;;;;;3.78;3.47;;;38.20;26.70;;;;;;5043663;28;20349;-71
2022/08/11 16:48:02;;;;;;;4.68;3.55;;;38.20;26.70;;;;;;5050713;28;20370;-74
2022/08/11 16:50:28;;;;;;;10.27;3.35;;;38.20;26.90;;;;;;5051989;28;20040;-73
2022/08/11 16:52:54;;;;;;;7.07;3.40;;;38.10;26.70;;;;;;5048773;28;20021;-68
2022/08/11 16:55:20;;;;;;;3.55;3.25;;;37.70;27.10;;;;;;5048370;28;20036;-72
2022/08/11 17:00:32;;;;;;;7.13;3.10;;;37.50;27.30;;;;;;5052865;28;20043;-73
2022/08/11 17:14:29;;;;;;;3.35;3.05;;;37.30;27.60;;;;;;5051461;28;20023;-73
2022/08/11 17:16:59;;;;;;;4.07;3.15;;;36.80;28.10;;;;;;5050868;28;20029;-73
2022/08/11 17:19:30;;;;;;;3.78;3.40;;;36.70;28.10;;;;;;5051319;28;20116;-73
2022/08/11 17:24:45;;;;;;;3.45;3.13;;;36.50;28.90;;;;;;5052370;28;20040;-73
2022/08/11 17:27:18;;;;;;;6.00;3.00;;;36.60;28.50;;;;;;5049870;28;20036;-73
2022/08/11 17:29:54;;;;;;;5.93;2.92;;;36.60;28.60;;;;;;5051457;28;20111;-73
2022/08/11 17:35:30;;;;;;;3.47;3.17;;;36.50;29.00;;;;;;5051686;28;20031;-72
2022/08/11 17:38:15;;;;;;;3.45;3.15;;;36.50;28.90;;;;;;5051395;28;20107;-70
2022/08/11 17:49:07;;;;;;;8.40;2.95;;;35.90;29.50;;;;;;5049693;28;20028;-73
2022/08/11 17:59:55;;;;;;;5.35;3.38;;;35.60;30.40;;;;;;5049400;28;20178;-72
2022/08/11 18:05:19;;;;;;;7.28;3.30;;;35.40;31.20;;;;;;5051553;28;20040;-74
